Terminal Aerodrome Forecast
Issued by NWS Cleveland, OH

Home | Current Version | Previous Version | Text Only | Print | Product List | Glossary On
Versions: 1 2 3 4 5 6 7 8 9 10 11 12 13 14 15 16 17 18 19 20 21 22
000
FTUS41 KCLE 202300
TAFMFD
TAF
KMFD 202326Z 2100/2124 26006KT P6SM SCT050
     FM210700 22003KT 5SM BR BKN100
      TEMPO 2110/2113 3SM -SHRA BR BKN035
     FM211300 23008KT 6SM HZ BKN070
     FM211900 23010KT P6SM BKN050
      TEMPO 2119/2122 3SM TSRA OVC025CB=

USA.gov is the U.S. government's official web portal to all federal, state and local government web resources and services.